AXB27E VOMM-VOBL
Flight info
| Callsign | AXB27E |
|---|---|
| Flight time | N/A |
| Altitude | 20000 |
| Route | MMV W117 BIA |
| Aircraft | B738/M-SDE2E3FGHIRWXY/LB1 |
Departure
| Time | 2026-05-08 13:14 |
|---|---|
| Airport | Chennai International Airport (VOMM) |
Arrival
| Time | N/A |
|---|---|
| Airport | Kempegowda International Airport Bengaluru (VOBL) |
| Time | Latitude | Longitude | Altitude | Speed | Heading |
|---|---|---|---|---|---|
| 2026-05-08 12:35 | 12.98175 | 80.15874 | 50 ft | 0 kts | 156° |
| 2026-05-08 12:49 | 12.98181 | 80.15871 | 50 ft | 2 kts | 159° |
| 2026-05-08 12:49 | 12.98191 | 80.15869 | 49 ft | 0 kts | 171° |
| 2026-05-08 13:04 | 12.98197 | 80.15868 | 49 ft | 0 kts | 171° |
| 2026-05-08 13:05 | 12.98203 | 80.15867 | 49 ft | 2 kts | 181° |
| 2026-05-08 13:06 | 12.98216 | 80.15868 | 48 ft | 2 kts | 188° |
| 2026-05-08 13:06 | 12.98230 | 80.15871 | 47 ft | 2 kts | 200° |
| 2026-05-08 13:06 | 12.98244 | 80.15878 | 46 ft | 2 kts | 210° |
| 2026-05-08 13:06 | 12.98256 | 80.15887 | 46 ft | 2 kts | 220° |
| 2026-05-08 13:07 | 12.98266 | 80.15897 | 46 ft | 2 kts | 231° |
| 2026-05-08 13:07 | 12.98274 | 80.15910 | 46 ft | 2 kts | 241° |
| 2026-05-08 13:07 | 12.98280 | 80.15923 | 46 ft | 2 kts | 251° |
| 2026-05-08 13:07 | 12.98285 | 80.15937 | 46 ft | 2 kts | 249° |
| 2026-05-08 13:08 | 12.98290 | 80.15951 | 46 ft | 2 kts | 250° |
| 2026-05-08 13:08 | 12.98295 | 80.15963 | 46 ft | 2 kts | 249° |
| 2026-05-08 13:08 | 12.98298 | 80.15972 | 46 ft | 0 kts | 250° |
| 2026-05-08 13:09 | 12.98298 | 80.15971 | 46 ft | 0 kts | 250° |
| 2026-05-08 13:09 | 12.98292 | 80.15953 | 46 ft | 4 kts | 253° |
| 2026-05-08 13:10 | 12.98290 | 80.15918 | 46 ft | 6 kts | 278° |
| 2026-05-08 13:10 | 12.98302 | 80.15864 | 46 ft | 11 kts | 284° |
| 2026-05-08 13:10 | 12.98325 | 80.15774 | 46 ft | 16 kts | 286° |
| 2026-05-08 13:10 | 12.98357 | 80.15663 | 45 ft | 20 kts | 285° |
| 2026-05-08 13:11 | 12.98384 | 80.15569 | 45 ft | 1 kts | 286° |
| 2026-05-08 13:12 | 12.98386 | 80.15561 | 45 ft | 3 kts | 285° |
| 2026-05-08 13:13 | 12.98397 | 80.15521 | 44 ft | 10 kts | 287° |
| 2026-05-08 13:13 | 12.98444 | 80.15459 | 44 ft | 13 kts | 1° |
| 2026-05-08 13:13 | 12.98502 | 80.15523 | 42 ft | 16 kts | 65° |
| 2026-05-08 13:13 | 12.98602 | 80.15778 | 42 ft | 93 kts | 70° |
| 2026-05-08 13:14 | 12.98836 | 80.16454 | 45 ft | 170 kts | 68° |
| 2026-05-08 13:14 | 12.99204 | 80.17373 | 378 ft | 209 kts | 68° |
| 2026-05-08 13:14 | 12.99640 | 80.18558 | 1562 ft | 199 kts | 73° |
| 2026-05-08 13:14 | 12.99882 | 80.19609 | 2477 ft | 200 kts | 78° |
| 2026-05-08 13:15 | 13.00144 | 80.20834 | 3118 ft | 219 kts | 76° |
| 2026-05-08 13:15 | 13.00425 | 80.22045 | 3902 ft | 227 kts | 76° |
| 2026-05-08 13:15 | 13.01205 | 80.25375 | 5882 ft | 250 kts | 75° |
| 2026-05-08 13:16 | 13.01606 | 80.27072 | 5998 ft | 252 kts | 75° |
| 2026-05-08 13:16 | 13.02011 | 80.28785 | 5995 ft | 250 kts | 75° |
| 2026-05-08 13:16 | 13.02414 | 80.30490 | 5995 ft | 249 kts | 75° |
| 2026-05-08 13:16 | 13.02820 | 80.32211 | 5994 ft | 249 kts | 75° |
| 2026-05-08 13:17 | 13.03226 | 80.33929 | 5994 ft | 249 kts | 75° |
| 2026-05-08 13:17 | 13.03801 | 80.35563 | 5986 ft | 248 kts | 56° |
| 2026-05-08 13:17 | 13.05095 | 80.36624 | 6199 ft | 244 kts | 20° |
| 2026-05-08 13:17 | 13.06790 | 80.36784 | 6718 ft | 253 kts | 356° |
| 2026-05-08 13:18 | 13.08497 | 80.36414 | 7210 ft | 257 kts | 341° |
| 2026-05-08 13:18 | 13.09900 | 80.35372 | 7686 ft | 264 kts | 310° |
| 2026-05-08 13:18 | 13.10558 | 80.33740 | 8158 ft | 271 kts | 279° |
| 2026-05-08 13:18 | 13.10655 | 80.32430 | 8512 ft | 273 kts | 276° |
| 2026-05-08 13:19 | 13.10891 | 80.30590 | 8987 ft | 274 kts | 281° |
| 2026-05-08 13:19 | 13.11170 | 80.28821 | 9445 ft | 275 kts | 281° |
| 2026-05-08 13:19 | 13.11335 | 80.27672 | 9741 ft | 276 kts | 280° |
| 2026-05-08 13:19 | 13.11565 | 80.26027 | 10163 ft | 277 kts | 280° |
| 2026-05-08 13:20 | 13.11741 | 80.24760 | 10486 ft | 278 kts | 280° |
| 2026-05-08 13:20 | 13.12074 | 80.22335 | 11102 ft | 280 kts | 280° |
| 2026-05-08 13:20 | 13.12309 | 80.20619 | 11535 ft | 282 kts | 280° |
| 2026-05-08 13:20 | 13.12576 | 80.18647 | 12031 ft | 283 kts | 280° |
| 2026-05-08 13:21 | 13.12806 | 80.16952 | 12454 ft | 285 kts | 280° |
| 2026-05-08 13:21 | 13.13266 | 80.13551 | 13295 ft | 289 kts | 280° |
| 2026-05-08 13:21 | 13.13450 | 80.12190 | 13628 ft | 291 kts | 280° |
| 2026-05-08 13:22 | 13.13706 | 80.10297 | 14089 ft | 293 kts | 280° |
| 2026-05-08 13:22 | 13.13994 | 80.08168 | 14602 ft | 296 kts | 280° |
| 2026-05-08 13:22 | 13.14264 | 80.06168 | 15081 ft | 298 kts | 280° |
| 2026-05-08 13:22 | 13.14540 | 80.04125 | 15566 ft | 300 kts | 280° |
| 2026-05-08 13:23 | 13.14827 | 80.01996 | 16067 ft | 303 kts | 280° |
| 2026-05-08 13:23 | 13.15110 | 79.99896 | 16557 ft | 306 kts | 280° |
| 2026-05-08 13:23 | 13.15389 | 79.97832 | 17034 ft | 308 kts | 280° |
| 2026-05-08 13:23 | 13.15675 | 79.95705 | 17523 ft | 311 kts | 280° |
| 2026-05-08 13:24 | 13.15966 | 79.93545 | 18014 ft | 313 kts | 280° |
| 2026-05-08 13:24 | 13.16266 | 79.91319 | 18517 ft | 316 kts | 280° |
| 2026-05-08 13:24 | 13.16567 | 79.89079 | 19018 ft | 319 kts | 280° |
| 2026-05-08 13:24 | 13.16857 | 79.86922 | 19497 ft | 321 kts | 280° |
| 2026-05-08 13:25 | 13.17139 | 79.84828 | 19708 ft | 329 kts | 280° |
| 2026-05-08 13:25 | 13.17459 | 79.82439 | 19695 ft | 324 kts | 280° |
| 2026-05-08 13:25 | 13.17748 | 79.80282 | 19695 ft | 323 kts | 280° |
| 2026-05-08 13:25 | 13.18030 | 79.78175 | 19695 ft | 323 kts | 280° |
| 2026-05-08 13:26 | 13.18339 | 79.75866 | 19695 ft | 323 kts | 280° |
| 2026-05-08 13:26 | 13.18642 | 79.73598 | 19696 ft | 323 kts | 280° |
| 2026-05-08 13:26 | 13.18948 | 79.71310 | 19696 ft | 323 kts | 280° |
| 2026-05-08 13:26 | 13.19248 | 79.69060 | 19697 ft | 323 kts | 280° |
| 2026-05-08 13:27 | 13.19555 | 79.66764 | 19697 ft | 323 kts | 280° |
| 2026-05-08 13:27 | 13.19829 | 79.64707 | 19698 ft | 323 kts | 280° |
| 2026-05-08 13:27 | 13.20091 | 79.62741 | 19698 ft | 323 kts | 280° |
| 2026-05-08 13:28 | 13.20678 | 79.58336 | 19699 ft | 324 kts | 280° |
| 2026-05-08 13:28 | 13.20939 | 79.56371 | 19699 ft | 324 kts | 280° |
| 2026-05-08 13:28 | 13.21252 | 79.54014 | 19699 ft | 324 kts | 280° |
| 2026-05-08 13:28 | 13.21521 | 79.51985 | 19699 ft | 324 kts | 280° |
| 2026-05-08 13:29 | 13.21790 | 79.49964 | 19699 ft | 324 kts | 280° |
| 2026-05-08 13:29 | 13.22068 | 79.47865 | 19699 ft | 324 kts | 280° |
| 2026-05-08 13:29 | 13.22368 | 79.45598 | 19700 ft | 324 kts | 280° |
| 2026-05-08 13:30 | 13.23016 | 79.40710 | 19700 ft | 324 kts | 280° |
| 2026-05-08 13:30 | 13.23535 | 79.36781 | 19700 ft | 324 kts | 280° |
| 2026-05-08 13:30 | 13.23801 | 79.34766 | 19700 ft | 324 kts | 279° |
| 2026-05-08 13:31 | 13.24077 | 79.32680 | 19701 ft | 324 kts | 279° |
| 2026-05-08 13:31 | 13.24373 | 79.30441 | 19701 ft | 324 kts | 279° |
| 2026-05-08 13:31 | 13.24669 | 79.28196 | 19701 ft | 324 kts | 279° |
| 2026-05-08 13:31 | 13.24920 | 79.26291 | 19701 ft | 324 kts | 279° |
| 2026-05-08 13:32 | 13.25267 | 79.23656 | 19701 ft | 324 kts | 279° |
| 2026-05-08 13:32 | 13.25566 | 79.21383 | 19701 ft | 324 kts | 279° |
| 2026-05-08 13:32 | 13.25851 | 79.19212 | 19701 ft | 324 kts | 279° |
| 2026-05-08 13:32 | 13.26152 | 79.16928 | 19701 ft | 324 kts | 279° |
| 2026-05-08 13:33 | 13.26453 | 79.14631 | 19701 ft | 323 kts | 279° |
| 2026-05-08 13:33 | 13.26738 | 79.12458 | 19701 ft | 323 kts | 279° |
| 2026-05-08 13:33 | 13.26955 | 79.10312 | 19659 ft | 324 kts | 275° |
| 2026-05-08 13:33 | 13.27102 | 79.08234 | 19603 ft | 322 kts | 279° |
| 2026-05-08 13:34 | 13.27498 | 79.05804 | 19540 ft | 321 kts | 282° |
| 2026-05-08 13:34 | 13.27835 | 79.03577 | 19485 ft | 320 kts | 280° |
| 2026-05-08 13:34 | 13.28150 | 79.01305 | 19431 ft | 319 kts | 280° |
| 2026-05-08 13:34 | 13.28445 | 78.99159 | 19380 ft | 319 kts | 280° |
| 2026-05-08 13:35 | 13.28746 | 78.96933 | 19318 ft | 318 kts | 279° |
| 2026-05-08 13:35 | 13.28992 | 78.95094 | 19273 ft | 318 kts | 279° |
| 2026-05-08 13:35 | 13.29269 | 78.92791 | 19217 ft | 318 kts | 277° |
| 2026-05-08 13:35 | 13.29304 | 78.90794 | 19163 ft | 319 kts | 269° |
| 2026-05-08 13:36 | 13.29167 | 78.88615 | 19106 ft | 319 kts | 268° |
| 2026-05-08 13:36 | 13.29036 | 78.86454 | 19056 ft | 318 kts | 268° |
| 2026-05-08 13:36 | 13.28901 | 78.84192 | 19000 ft | 318 kts | 268° |
| 2026-05-08 13:36 | 13.28767 | 78.82053 | 18955 ft | 318 kts | 268° |
| 2026-05-08 13:37 | 13.28621 | 78.79805 | 18907 ft | 318 kts | 268° |
| 2026-05-08 13:37 | 13.28472 | 78.77540 | 18860 ft | 317 kts | 268° |
| 2026-05-08 13:37 | 13.28321 | 78.75293 | 18813 ft | 317 kts | 268° |
| 2026-05-08 13:37 | 13.28171 | 78.73066 | 18762 ft | 317 kts | 268° |
| 2026-05-08 13:38 | 13.28029 | 78.70974 | 18714 ft | 317 kts | 268° |
| 2026-05-08 13:38 | 13.27877 | 78.68729 | 18663 ft | 316 kts | 268° |
| 2026-05-08 13:38 | 13.27725 | 78.66504 | 18607 ft | 316 kts | 268° |
| 2026-05-08 13:38 | 13.27572 | 78.64252 | 18555 ft | 316 kts | 268° |
| 2026-05-08 13:39 | 13.27418 | 78.62013 | 18500 ft | 315 kts | 268° |
| 2026-05-08 13:39 | 13.27268 | 78.59818 | 18447 ft | 315 kts | 268° |
| 2026-05-08 13:39 | 13.27114 | 78.57571 | 18399 ft | 315 kts | 268° |
| 2026-05-08 13:39 | 13.26962 | 78.55353 | 18349 ft | 315 kts | 268° |
| 2026-05-08 13:40 | 13.26817 | 78.53251 | 18300 ft | 314 kts | 268° |
| 2026-05-08 13:40 | 13.26710 | 78.51696 | 18315 ft | 313 kts | 268° |
| 2026-05-08 13:40 | 13.26560 | 78.49511 | 18551 ft | 313 kts | 268° |
| 2026-05-08 13:40 | 13.26401 | 78.47201 | 18809 ft | 317 kts | 268° |
| 2026-05-08 13:41 | 13.26251 | 78.45023 | 19049 ft | 318 kts | 268° |
| 2026-05-08 13:41 | 13.26098 | 78.42813 | 19292 ft | 319 kts | 268° |
| 2026-05-08 13:41 | 13.25941 | 78.40548 | 19540 ft | 321 kts | 268° |
| 2026-05-08 13:41 | 13.25789 | 78.38349 | 19781 ft | 322 kts | 268° |
| 2026-05-08 13:42 | 13.25638 | 78.36144 | 19866 ft | 325 kts | 268° |
| 2026-05-08 13:42 | 13.25519 | 78.34037 | 19861 ft | 323 kts | 269° |
| 2026-05-08 13:42 | 13.25453 | 78.31805 | 19861 ft | 322 kts | 271° |
| 2026-05-08 13:43 | 13.26331 | 78.23321 | 19861 ft | 319 kts | 286° |
| 2026-05-08 13:43 | 13.26946 | 78.21227 | 19861 ft | 318 kts | 291° |
| 2026-05-08 13:44 | 13.27746 | 78.19205 | 19861 ft | 317 kts | 297° |
| 2026-05-08 13:44 | 13.28723 | 78.17302 | 19861 ft | 316 kts | 303° |
| 2026-05-08 13:44 | 13.29868 | 78.15543 | 19861 ft | 315 kts | 309° |
| 2026-05-08 13:44 | 13.31444 | 78.13618 | 19617 ft | 319 kts | 313° |
| 2026-05-08 13:45 | 13.32595 | 78.11807 | 19113 ft | 316 kts | 293° |
| 2026-05-08 13:45 | 13.32384 | 78.07832 | 18048 ft | 316 kts | 249° |
| 2026-05-08 13:45 | 13.31597 | 78.05821 | 17449 ft | 313 kts | 252° |
| 2026-05-08 13:46 | 13.31092 | 78.03730 | 16837 ft | 308 kts | 262° |
| 2026-05-08 13:46 | 13.30888 | 78.01743 | 16263 ft | 304 kts | 268° |
| 2026-05-08 13:46 | 13.30803 | 77.99593 | 15636 ft | 301 kts | 270° |
| 2026-05-08 13:46 | 13.30772 | 77.97740 | 15106 ft | 298 kts | 271° |
| 2026-05-08 13:47 | 13.30767 | 77.95874 | 14552 ft | 295 kts | 272° |
| 2026-05-08 13:47 | 13.30775 | 77.94039 | 14004 ft | 293 kts | 272° |
| 2026-05-08 13:47 | 13.30793 | 77.92065 | 13407 ft | 290 kts | 272° |
| 2026-05-08 13:47 | 13.30821 | 77.90065 | 12797 ft | 287 kts | 272° |
| 2026-05-08 13:48 | 13.30847 | 77.88077 | 12184 ft | 284 kts | 272° |
| 2026-05-08 13:48 | 13.30872 | 77.86127 | 11577 ft | 282 kts | 272° |
| 2026-05-08 13:48 | 13.30895 | 77.84330 | 11015 ft | 280 kts | 272° |
| 2026-05-08 13:48 | 13.30919 | 77.82424 | 10416 ft | 279 kts | 272° |
| 2026-05-08 13:49 | 13.30944 | 77.80476 | 9800 ft | 278 kts | 272° |
| 2026-05-08 13:49 | 13.30969 | 77.78545 | 9186 ft | 276 kts | 272° |
| 2026-05-08 13:49 | 13.30988 | 77.76608 | 8567 ft | 275 kts | 272° |
| 2026-05-08 13:49 | 13.31004 | 77.74694 | 7953 ft | 273 kts | 272° |
| 2026-05-08 13:50 | 13.31021 | 77.72749 | 7324 ft | 272 kts | 272° |
| 2026-05-08 13:50 | 13.31037 | 77.70832 | 6702 ft | 270 kts | 272° |
| 2026-05-08 13:50 | 13.31053 | 77.68945 | 6184 ft | 266 kts | 271° |
| 2026-05-08 13:50 | 13.31068 | 77.67038 | 6121 ft | 266 kts | 271° |
| 2026-05-08 13:51 | 13.31083 | 77.65171 | 6129 ft | 268 kts | 271° |
| 2026-05-08 13:51 | 13.31098 | 77.63243 | 6128 ft | 269 kts | 271° |
| 2026-05-08 13:51 | 13.31113 | 77.61347 | 6127 ft | 269 kts | 271° |
| 2026-05-08 13:51 | 13.31127 | 77.59459 | 6127 ft | 269 kts | 271° |
| 2026-05-08 13:52 | 13.31141 | 77.57565 | 6127 ft | 269 kts | 271° |
| 2026-05-08 13:52 | 13.31155 | 77.55650 | 6127 ft | 269 kts | 271° |
| 2026-05-08 13:52 | 13.31169 | 77.53770 | 6127 ft | 269 kts | 271° |
| 2026-05-08 13:52 | 13.31183 | 77.51882 | 6128 ft | 269 kts | 271° |
| 2026-05-08 13:53 | 13.31197 | 77.49999 | 6126 ft | 268 kts | 271° |
| 2026-05-08 13:53 | 13.31097 | 77.48111 | 6124 ft | 273 kts | 258° |
| 2026-05-08 13:53 | 13.30260 | 77.46416 | 6121 ft | 274 kts | 226° |
| 2026-05-08 13:53 | 13.28676 | 77.45447 | 6128 ft | 270 kts | 192° |
| 2026-05-08 13:54 | 13.26851 | 77.45288 | 6142 ft | 268 kts | 178° |
| 2026-05-08 13:54 | 13.24998 | 77.45290 | 6129 ft | 267 kts | 174° |
| 2026-05-08 13:54 | 13.23321 | 77.45836 | 6118 ft | 261 kts | 144° |
| 2026-05-08 13:54 | 13.22045 | 77.47114 | 6142 ft | 258 kts | 128° |
| 2026-05-08 13:55 | 13.21090 | 77.48547 | 6123 ft | 256 kts | 110° |
| 2026-05-08 13:55 | 13.20833 | 77.50221 | 6131 ft | 253 kts | 88° |
| 2026-05-08 13:55 | 13.20837 | 77.53793 | 5864 ft | 254 kts | 89° |
| 2026-05-08 13:56 | 13.20827 | 77.55436 | 5567 ft | 251 kts | 90° |
| 2026-05-08 13:56 | 13.20812 | 77.57106 | 5253 ft | 249 kts | 89° |
| 2026-05-08 13:56 | 13.20799 | 77.58817 | 4926 ft | 247 kts | 90° |
| 2026-05-08 13:56 | 13.20785 | 77.60465 | 4626 ft | 225 kts | 90° |
| 2026-05-08 13:57 | 13.20774 | 77.61735 | 4383 ft | 193 kts | 90° |
| 2026-05-08 13:57 | 13.20763 | 77.62947 | 4116 ft | 159 kts | 90° |
| 2026-05-08 13:57 | 13.20755 | 77.64034 | 3937 ft | 161 kts | 90° |
| 2026-05-08 13:57 | 13.20746 | 77.65028 | 3741 ft | 161 kts | 90° |
| 2026-05-08 13:58 | 13.20729 | 77.67095 | 3353 ft | 160 kts | 90° |
| 2026-05-08 13:58 | 13.20721 | 77.68012 | 3182 ft | 160 kts | 90° |